<?xml version="1.0" encoding="UTF-8"?>
<gpx xmlns="http://www.topografix.com/GPX/1/1" xmlns:xsi="http://www.w3.org/2001/XMLSchema-instance" version="1.1" xsi:schemaLocation="http://www.topografix.com/GPX/1/1 http://www.topografix.com/GPX/1/1/gpx.xsd">
  <metadata>
    <name>Cal Tri DC - Olympic SwimBike</name>
  </metadata>
  <trk>
    <name>Cal Tri DC - Olympic SwimBike</name>
    <trkseg>
      <trkpt lat="38.55742" lon="-77.185735">
        <ele>2.657714</ele>
        <time>2023-09-10T08:50:00.000Z</time>
      </trkpt>
      <trkpt lat="38.557088" lon="-77.185077">
        <ele>2.657709</ele>
        <time>2023-09-10T08:50:07.000Z</time>
      </trkpt>
      <trkpt lat="38.556735" lon="-77.184432">
        <ele>2.906651</ele>
        <time>2023-09-10T08:50:14.000Z</time>
      </trkpt>
      <trkpt lat="38.556657" lon="-77.184168">
        <ele>3.072236</ele>
        <time>2023-09-10T08:50:16.000Z</time>
      </trkpt>
      <trkpt lat="38.556511" lon="-77.183542">
        <ele>3.454746</ele>
        <time>2023-09-10T08:50:22.000Z</time>
      </trkpt>
      <trkpt lat="38.556332" lon="-77.183081">
        <ele>3.758012</ele>
        <time>2023-09-10T08:50:26.000Z</time>
      </trkpt>
      <trkpt lat="38.555415" lon="-77.181265">
        <ele>6.182636</ele>
        <time>2023-09-10T08:50:45.000Z</time>
      </trkpt>
      <trkpt lat="38.555213" lon="-77.180565">
        <ele>7.252214</ele>
        <time>2023-09-10T08:50:51.000Z</time>
      </trkpt>
      <trkpt lat="38.555154" lon="-77.180172">
        <ele>7.995699</ele>
        <time>2023-09-10T08:50:54.000Z</time>
      </trkpt>
      <trkpt lat="38.55515" lon="-77.179928">
        <ele>8.464732</ele>
        <time>2023-09-10T08:50:56.000Z</time>
      </trkpt>
      <trkpt lat="38.555169" lon="-77.179752">
        <ele>8.838624</ele>
        <time>2023-09-10T08:50:58.000Z</time>
      </trkpt>
      <trkpt lat="38.555299" lon="-77.179343">
        <ele>9.677564</ele>
        <time>2023-09-10T08:51:02.000Z</time>
      </trkpt>
      <trkpt lat="38.555417" lon="-77.179127">
        <ele>10.187418</ele>
        <time>2023-09-10T08:51:04.000Z</time>
      </trkpt>
      <trkpt lat="38.555707" lon="-77.178789">
        <ele>11.168146</ele>
        <time>2023-09-10T08:51:08.000Z</time>
      </trkpt>
      <trkpt lat="38.555883" lon="-77.178489">
        <ele>11.85321</ele>
        <time>2023-09-10T08:51:11.000Z</time>
      </trkpt>
      <trkpt lat="38.555982" lon="-77.17828">
        <ele>12.320777</ele>
        <time>2023-09-10T08:51:13.000Z</time>
      </trkpt>
      <trkpt lat="38.556124" lon="-77.177758">
        <ele>13.351199</ele>
        <time>2023-09-10T08:51:18.000Z</time>
      </trkpt>
      <trkpt lat="38.55617" lon="-77.177443">
        <ele>13.956614</ele>
        <time>2023-09-10T08:51:21.000Z</time>
      </trkpt>
      <trkpt lat="38.556208" lon="-77.177008">
        <ele>14.766733</ele>
        <time>2023-09-10T08:51:25.000Z</time>
      </trkpt>
      <trkpt lat="38.556192" lon="-77.176505">
        <ele>15.747056</ele>
        <time>2023-09-10T08:51:29.000Z</time>
      </trkpt>
      <trkpt lat="38.556061" lon="-77.17571">
        <ele>18.028021</ele>
        <time>2023-09-10T08:51:36.000Z</time>
      </trkpt>
      <trkpt lat="38.555841" lon="-77.17506">
        <ele>20.0314</ele>
        <time>2023-09-10T08:51:42.000Z</time>
      </trkpt>
      <trkpt lat="38.555721" lon="-77.174887">
        <ele>20.654179</ele>
        <time>2023-09-10T08:51:44.000Z</time>
      </trkpt>
      <trkpt lat="38.555645" lon="-77.174684">
        <ele>21.306191</ele>
        <time>2023-09-10T08:51:46.000Z</time>
      </trkpt>
      <trkpt lat="38.555115" lon="-77.173846">
        <ele>24.444006</ele>
        <time>2023-09-10T08:51:55.000Z</time>
      </trkpt>
      <trkpt lat="38.555057" lon="-77.173744">
        <ele>24.8216</ele>
        <time>2023-09-10T08:51:56.000Z</time>
      </trkpt>
      <trkpt lat="38.554936" lon="-77.173811">
        <ele>25.34082</ele>
        <time>2023-09-10T08:51:57.000Z</time>
      </trkpt>
      <trkpt lat="38.554445" lon="-77.174091">
        <ele>27.386719</ele>
        <time>2023-09-10T08:52:03.000Z</time>
      </trkpt>
      <trkpt lat="38.553788" lon="-77.17435">
        <ele>29.186234</ele>
        <time>2023-09-10T08:52:11.000Z</time>
      </trkpt>
      <trkpt lat="38.553318" lon="-77.174509">
        <ele>29.724561</ele>
        <time>2023-09-10T08:52:16.000Z</time>
      </trkpt>
      <trkpt lat="38.552422" lon="-77.174798">
        <ele>30.734444</ele>
        <time>2023-09-10T08:52:26.000Z</time>
      </trkpt>
      <trkpt lat="38.551893" lon="-77.174982">
        <ele>29.39494</ele>
        <time>2023-09-10T08:52:32.000Z</time>
      </trkpt>
      <trkpt lat="38.55156" lon="-77.17511">
        <ele>28.291299</ele>
        <time>2023-09-10T08:52:36.000Z</time>
      </trkpt>
      <trkpt lat="38.549487" lon="-77.17579">
        <ele>22.547065</ele>
        <time>2023-09-10T08:53:00.000Z</time>
      </trkpt>
      <trkpt lat="38.547765" lon="-77.176394">
        <ele>23.625375</ele>
        <time>2023-09-10T08:53:20.000Z</time>
      </trkpt>
      <trkpt lat="38.547243" lon="-77.176623">
        <ele>24.894371</ele>
        <time>2023-09-10T08:53:26.000Z</time>
      </trkpt>
      <trkpt lat="38.546557" lon="-77.177025">
        <ele>28.145082</ele>
        <time>2023-09-10T08:53:34.000Z</time>
      </trkpt>
      <trkpt lat="38.546112" lon="-77.17732">
        <ele>30.506655</ele>
        <time>2023-09-10T08:53:40.000Z</time>
      </trkpt>
      <trkpt lat="38.545685" lon="-77.177678">
        <ele>32.917036</ele>
        <time>2023-09-10T08:53:46.000Z</time>
      </trkpt>
      <trkpt lat="38.544999" lon="-77.178319">
        <ele>34.689574</ele>
        <time>2023-09-10T08:53:55.000Z</time>
      </trkpt>
      <trkpt lat="38.544795" lon="-77.178526">
        <ele>35.081124</ele>
        <time>2023-09-10T08:53:58.000Z</time>
      </trkpt>
      <trkpt lat="38.544061" lon="-77.179548">
        <ele>35.637001</ele>
        <time>2023-09-10T08:54:10.000Z</time>
      </trkpt>
      <trkpt lat="38.543735" lon="-77.180067">
        <ele>34.121283</ele>
        <time>2023-09-10T08:54:16.000Z</time>
      </trkpt>
      <trkpt lat="38.543542" lon="-77.180436">
        <ele>33.122592</ele>
        <time>2023-09-10T08:54:20.000Z</time>
      </trkpt>
      <trkpt lat="38.54309" lon="-77.181418">
        <ele>30.321743</ele>
        <time>2023-09-10T08:54:30.000Z</time>
      </trkpt>
      <trkpt lat="38.542242" lon="-77.183523">
        <ele>23.80608</ele>
        <time>2023-09-10T08:54:51.000Z</time>
      </trkpt>
      <trkpt lat="38.542043" lon="-77.184039">
        <ele>23.527216</ele>
        <time>2023-09-10T08:54:56.000Z</time>
      </trkpt>
      <trkpt lat="38.541858" lon="-77.184566">
        <ele>23.2397</ele>
        <time>2023-09-10T08:55:01.000Z</time>
      </trkpt>
      <trkpt lat="38.54141" lon="-77.185598">
        <ele>23.779825</ele>
        <time>2023-09-10T08:55:11.000Z</time>
      </trkpt>
      <trkpt lat="38.54136" lon="-77.185688">
        <ele>24.038987</ele>
        <time>2023-09-10T08:55:12.000Z</time>
      </trkpt>
      <trkpt lat="38.541227" lon="-77.186028">
        <ele>25.059149</ele>
        <time>2023-09-10T08:55:15.000Z</time>
      </trkpt>
      <trkpt lat="38.541202" lon="-77.18608">
        <ele>25.206828</ele>
        <time>2023-09-10T08:55:16.000Z</time>
      </trkpt>
      <trkpt lat="38.540643" lon="-77.187439">
        <ele>29.014452</ele>
        <time>2023-09-10T08:55:29.000Z</time>
      </trkpt>
      <trkpt lat="38.54026" lon="-77.188389">
        <ele>30.952755</ele>
        <time>2023-09-10T08:55:38.000Z</time>
      </trkpt>
      <trkpt lat="38.540143" lon="-77.188681">
        <ele>31.555948</ele>
        <time>2023-09-10T08:55:41.000Z</time>
      </trkpt>
      <trkpt lat="38.540038" lon="-77.18894">
        <ele>32.096366</ele>
        <time>2023-09-10T08:55:44.000Z</time>
      </trkpt>
      <trkpt lat="38.539829" lon="-77.189418">
        <ele>32.972926</ele>
        <time>2023-09-10T08:55:49.000Z</time>
      </trkpt>
      <trkpt lat="38.539615" lon="-77.189938">
        <ele>33.191452</ele>
        <time>2023-09-10T08:55:54.000Z</time>
      </trkpt>
      <trkpt lat="38.539577" lon="-77.190053">
        <ele>33.242082</ele>
        <time>2023-09-10T08:55:55.000Z</time>
      </trkpt>
      <trkpt lat="38.539232" lon="-77.1909">
        <ele>33.595588</ele>
        <time>2023-09-10T08:56:03.000Z</time>
      </trkpt>
      <trkpt lat="38.539129" lon="-77.191144">
        <ele>33.697386</ele>
        <time>2023-09-10T08:56:05.000Z</time>
      </trkpt>
      <trkpt lat="38.538847" lon="-77.191838">
        <ele>33.917013</ele>
        <time>2023-09-10T08:56:12.000Z</time>
      </trkpt>
      <trkpt lat="38.53819" lon="-77.193452">
        <ele>34.327517</ele>
        <time>2023-09-10T08:56:28.000Z</time>
      </trkpt>
      <trkpt lat="38.537533" lon="-77.195051">
        <ele>34.168289</ele>
        <time>2023-09-10T08:56:44.000Z</time>
      </trkpt>
      <trkpt lat="38.537524" lon="-77.19506">
        <ele>34.16738</ele>
        <time>2023-09-10T08:56:44.000Z</time>
      </trkpt>
      <trkpt lat="38.537082" lon="-77.19614">
        <ele>33.843075</ele>
        <time>2023-09-10T08:56:55.000Z</time>
      </trkpt>
      <trkpt lat="38.537061" lon="-77.196203">
        <ele>33.820338</ele>
        <time>2023-09-10T08:56:56.000Z</time>
      </trkpt>
      <trkpt lat="38.536679" lon="-77.197071">
        <ele>33.454403</ele>
        <time>2023-09-10T08:57:05.000Z</time>
      </trkpt>
      <trkpt lat="38.53629" lon="-77.198098">
        <ele>33.726684</ele>
        <time>2023-09-10T08:57:15.000Z</time>
      </trkpt>
      <trkpt lat="38.535841" lon="-77.199205">
        <ele>34.520163</ele>
        <time>2023-09-10T08:57:26.000Z</time>
      </trkpt>
      <trkpt lat="38.535778" lon="-77.199322">
        <ele>34.601512</ele>
        <time>2023-09-10T08:57:27.000Z</time>
      </trkpt>
      <trkpt lat="38.535721" lon="-77.199465">
        <ele>34.702336</ele>
        <time>2023-09-10T08:57:28.000Z</time>
      </trkpt>
      <trkpt lat="38.535497" lon="-77.200009">
        <ele>35.148297</ele>
        <time>2023-09-10T08:57:33.000Z</time>
      </trkpt>
      <trkpt lat="38.534159" lon="-77.203267">
        <ele>37.42326</ele>
        <time>2023-09-10T08:58:05.000Z</time>
      </trkpt>
      <trkpt lat="38.531928" lon="-77.208703">
        <ele>39.629151</ele>
        <time>2023-09-10T08:58:58.000Z</time>
      </trkpt>
      <trkpt lat="38.531504" lon="-77.209762">
        <ele>39.821487</ele>
        <time>2023-09-10T08:59:08.000Z</time>
      </trkpt>
      <trkpt lat="38.531301" lon="-77.210376">
        <ele>39.981535</ele>
        <time>2023-09-10T08:59:14.000Z</time>
      </trkpt>
      <trkpt lat="38.531247" lon="-77.210629">
        <ele>40.044586</ele>
        <time>2023-09-10T08:59:16.000Z</time>
      </trkpt>
      <trkpt lat="38.531189" lon="-77.211119">
        <ele>40.164298</ele>
        <time>2023-09-10T08:59:20.000Z</time>
      </trkpt>
      <trkpt lat="38.531173" lon="-77.211667">
        <ele>40.296145</ele>
        <time>2023-09-10T08:59:25.000Z</time>
      </trkpt>
      <trkpt lat="38.531226" lon="-77.212356">
        <ele>40.387864</ele>
        <time>2023-09-10T08:59:31.000Z</time>
      </trkpt>
      <trkpt lat="38.531358" lon="-77.212976">
        <ele>40.428996</ele>
        <time>2023-09-10T08:59:37.000Z</time>
      </trkpt>
      <trkpt lat="38.531452" lon="-77.213259">
        <ele>40.448038</ele>
        <time>2023-09-10T08:59:40.000Z</time>
      </trkpt>
      <trkpt lat="38.53159" lon="-77.213568">
        <ele>40.471096</ele>
        <time>2023-09-10T08:59:43.000Z</time>
      </trkpt>
      <trkpt lat="38.531722" lon="-77.21384">
        <ele>40.489763</ele>
        <time>2023-09-10T08:59:46.000Z</time>
      </trkpt>
      <trkpt lat="38.53234" lon="-77.215183">
        <ele>38.395696</ele>
        <time>2023-09-10T09:00:00.000Z</time>
      </trkpt>
      <trkpt lat="38.532554" lon="-77.215654">
        <ele>37.505756</ele>
        <time>2023-09-10T09:00:05.000Z</time>
      </trkpt>
      <trkpt lat="38.533136" lon="-77.216932">
        <ele>33.353381</ele>
        <time>2023-09-10T09:00:18.000Z</time>
      </trkpt>
      <trkpt lat="38.53387" lon="-77.21848">
        <ele>26.897965</ele>
        <time>2023-09-10T09:00:34.000Z</time>
      </trkpt>
      <trkpt lat="38.534189" lon="-77.219165">
        <ele>23.71008</ele>
        <time>2023-09-10T09:00:41.000Z</time>
      </trkpt>
      <trkpt lat="38.534294" lon="-77.219502">
        <ele>22.243866</ele>
        <time>2023-09-10T09:00:44.000Z</time>
      </trkpt>
      <trkpt lat="38.53437" lon="-77.219819">
        <ele>20.990124</ele>
        <time>2023-09-10T09:00:47.000Z</time>
      </trkpt>
      <trkpt lat="38.534385" lon="-77.220303">
        <ele>19.21956</ele>
        <time>2023-09-10T09:00:51.000Z</time>
      </trkpt>
      <trkpt lat="38.534308" lon="-77.221681">
        <ele>14.756104</ele>
        <time>2023-09-10T09:01:03.000Z</time>
      </trkpt>
      <trkpt lat="38.534258" lon="-77.222709">
        <ele>11.649617</ele>
        <time>2023-09-10T09:01:12.000Z</time>
      </trkpt>
      <trkpt lat="38.534196" lon="-77.223361">
        <ele>9.936774</ele>
        <time>2023-09-10T09:01:18.000Z</time>
      </trkpt>
      <trkpt lat="38.534078" lon="-77.224136">
        <ele>7.94497</ele>
        <time>2023-09-10T09:01:25.000Z</time>
      </trkpt>
      <trkpt lat="38.533981" lon="-77.224552">
        <ele>6.79107</ele>
        <time>2023-09-10T09:01:29.000Z</time>
      </trkpt>
      <trkpt lat="38.533864" lon="-77.224925">
        <ele>6.485267</ele>
        <time>2023-09-10T09:01:32.000Z</time>
      </trkpt>
      <trkpt lat="38.53311" lon="-77.226574">
        <ele>5.905761</ele>
        <time>2023-09-10T09:01:49.000Z</time>
      </trkpt>
      <trkpt lat="38.533063" lon="-77.226677">
        <ele>6.037976</ele>
        <time>2023-09-10T09:01:50.000Z</time>
      </trkpt>
      <trkpt lat="38.532361" lon="-77.228235">
        <ele>12.44714</ele>
        <time>2023-09-10T09:02:06.000Z</time>
      </trkpt>
      <trkpt lat="38.532143" lon="-77.228644">
        <ele>14.217414</ele>
        <time>2023-09-10T09:02:10.000Z</time>
      </trkpt>
      <trkpt lat="38.531792" lon="-77.229116">
        <ele>16.974315</ele>
        <time>2023-09-10T09:02:16.000Z</time>
      </trkpt>
      <trkpt lat="38.531374" lon="-77.229476">
        <ele>19.710093</ele>
        <time>2023-09-10T09:02:22.000Z</time>
      </trkpt>
      <trkpt lat="38.531074" lon="-77.229703">
        <ele>21.52032</ele>
        <time>2023-09-10T09:02:26.000Z</time>
      </trkpt>
      <trkpt lat="38.529849" lon="-77.230571">
        <ele>25.868795</ele>
        <time>2023-09-10T09:02:42.000Z</time>
      </trkpt>
      <trkpt lat="38.529728" lon="-77.230664">
        <ele>26.15973</ele>
        <time>2023-09-10T09:02:44.000Z</time>
      </trkpt>
      <trkpt lat="38.529518" lon="-77.230811">
        <ele>26.668966</ele>
        <time>2023-09-10T09:02:47.000Z</time>
      </trkpt>
      <trkpt lat="38.52924" lon="-77.231074">
        <ele>27.414103</ele>
        <time>2023-09-10T09:02:51.000Z</time>
      </trkpt>
      <trkpt lat="38.529049" lon="-77.231256">
        <ele>27.549929</ele>
        <time>2023-09-10T09:02:54.000Z</time>
      </trkpt>
      <trkpt lat="38.52846" lon="-77.231933">
        <ele>27.377921</ele>
        <time>2023-09-10T09:03:03.000Z</time>
      </trkpt>
      <trkpt lat="38.528401" lon="-77.23199">
        <ele>27.360639</ele>
        <time>2023-09-10T09:03:04.000Z</time>
      </trkpt>
      <trkpt lat="38.527702" lon="-77.232815">
        <ele>27.1784</ele>
        <time>2023-09-10T09:03:15.000Z</time>
      </trkpt>
      <trkpt lat="38.527411" lon="-77.23306">
        <ele>27.152598</ele>
        <time>2023-09-10T09:03:19.000Z</time>
      </trkpt>
      <trkpt lat="38.527099" lon="-77.233265">
        <ele>27.126281</ele>
        <time>2023-09-10T09:03:23.000Z</time>
      </trkpt>
      <trkpt lat="38.5265" lon="-77.233538">
        <ele>27.080531</ele>
        <time>2023-09-10T09:03:30.000Z</time>
      </trkpt>
      <trkpt lat="38.526323" lon="-77.233599">
        <ele>27.067454</ele>
        <time>2023-09-10T09:03:32.000Z</time>
      </trkpt>
      <trkpt lat="38.525221" lon="-77.23398">
        <ele>27.565781</ele>
        <time>2023-09-10T09:03:45.000Z</time>
      </trkpt>
      <trkpt lat="38.524561" lon="-77.234109">
        <ele>27.890999</ele>
        <time>2023-09-10T09:03:52.000Z</time>
      </trkpt>
      <trkpt lat="38.524096" lon="-77.234149">
        <ele>28.257969</ele>
        <time>2023-09-10T09:03:57.000Z</time>
      </trkpt>
      <trkpt lat="38.522064" lon="-77.23418">
        <ele>29.848566</ele>
        <time>2023-09-10T09:04:20.000Z</time>
      </trkpt>
      <trkpt lat="38.521622" lon="-77.234099">
        <ele>30.078777</ele>
        <time>2023-09-10T09:04:25.000Z</time>
      </trkpt>
      <trkpt lat="38.521254" lon="-77.23392">
        <ele>30.297063</ele>
        <time>2023-09-10T09:04:29.000Z</time>
      </trkpt>
      <trkpt lat="38.520952" lon="-77.233742">
        <ele>30.468554</ele>
        <time>2023-09-10T09:04:33.000Z</time>
      </trkpt>
      <trkpt lat="38.520101" lon="-77.233113">
        <ele>30.19339</ele>
        <time>2023-09-10T09:04:44.000Z</time>
      </trkpt>
      <trkpt lat="38.517752" lon="-77.238135">
        <ele>25.899679</ele>
        <time>2023-09-10T09:05:35.000Z</time>
      </trkpt>
      <trkpt lat="38.516275" lon="-77.241246">
        <ele>14.183317</ele>
        <time>2023-09-10T09:06:07.000Z</time>
      </trkpt>
      <trkpt lat="38.515904" lon="-77.241915">
        <ele>11.559968</ele>
        <time>2023-09-10T09:06:14.000Z</time>
      </trkpt>
      <trkpt lat="38.515408" lon="-77.242672">
        <ele>10.195626</ele>
        <time>2023-09-10T09:06:23.000Z</time>
      </trkpt>
      <trkpt lat="38.515153" lon="-77.242989">
        <ele>9.574031</ele>
        <time>2023-09-10T09:06:27.000Z</time>
      </trkpt>
      <trkpt lat="38.514588" lon="-77.243611">
        <ele>8.404827</ele>
        <time>2023-09-10T09:06:35.000Z</time>
      </trkpt>
      <trkpt lat="38.514135" lon="-77.24402">
        <ele>8.212823</ele>
        <time>2023-09-10T09:06:41.000Z</time>
      </trkpt>
      <trkpt lat="38.51374" lon="-77.244391">
        <ele>8.043915</ele>
        <time>2023-09-10T09:06:46.000Z</time>
      </trkpt>
      <trkpt lat="38.513196" lon="-77.244767">
        <ele>7.833859</ele>
        <time>2023-09-10T09:06:53.000Z</time>
      </trkpt>
      <trkpt lat="38.512724" lon="-77.24504">
        <ele>7.768377</ele>
        <time>2023-09-10T09:06:59.000Z</time>
      </trkpt>
      <trkpt lat="38.512112" lon="-77.245327">
        <ele>7.697212</ele>
        <time>2023-09-10T09:07:06.000Z</time>
      </trkpt>
      <trkpt lat="38.511917" lon="-77.245419">
        <ele>7.675821</ele>
        <time>2023-09-10T09:07:08.000Z</time>
      </trkpt>
      <trkpt lat="38.50921" lon="-77.246773">
        <ele>7.94869</ele>
        <time>2023-09-10T09:07:40.000Z</time>
      </trkpt>
      <trkpt lat="38.507792" lon="-77.247473">
        <ele>7.817597</ele>
        <time>2023-09-10T09:07:57.000Z</time>
      </trkpt>
      <trkpt lat="38.506558" lon="-77.248021">
        <ele>7.42965</ele>
        <time>2023-09-10T09:08:12.000Z</time>
      </trkpt>
      <trkpt lat="38.50275" lon="-77.249824">
        <ele>6.967093</ele>
        <time>2023-09-10T09:08:57.000Z</time>
      </trkpt>
      <trkpt lat="38.501425" lon="-77.250489">
        <ele>8.339525</ele>
        <time>2023-09-10T09:09:13.000Z</time>
      </trkpt>
      <trkpt lat="38.499039" lon="-77.251589">
        <ele>9.94065</ele>
        <time>2023-09-10T09:09:41.000Z</time>
      </trkpt>
      <trkpt lat="38.497443" lon="-77.252403">
        <ele>11.207336</ele>
        <time>2023-09-10T09:10:00.000Z</time>
      </trkpt>
      <trkpt lat="38.493078" lon="-77.254479">
        <ele>19.753886</ele>
        <time>2023-09-10T09:10:52.000Z</time>
      </trkpt>
      <trkpt lat="38.490512" lon="-77.255764">
        <ele>21.104832</ele>
        <time>2023-09-10T09:11:23.000Z</time>
      </trkpt>
      <trkpt lat="38.488939" lon="-77.256424">
        <ele>22.186499</ele>
        <time>2023-09-10T09:11:41.000Z</time>
      </trkpt>
      <trkpt lat="38.488525" lon="-77.256558">
        <ele>22.581425</ele>
        <time>2023-09-10T09:11:46.000Z</time>
      </trkpt>
      <trkpt lat="38.487512" lon="-77.256709">
        <ele>23.377927</ele>
        <time>2023-09-10T09:11:57.000Z</time>
      </trkpt>
      <trkpt lat="38.487066" lon="-77.256774">
        <ele>23.609059</ele>
        <time>2023-09-10T09:12:02.000Z</time>
      </trkpt>
      <trkpt lat="38.48626" lon="-77.256744">
        <ele>24.014511</ele>
        <time>2023-09-10T09:12:11.000Z</time>
      </trkpt>
      <trkpt lat="38.485575" lon="-77.256626">
        <ele>23.910991</ele>
        <time>2023-09-10T09:12:19.000Z</time>
      </trkpt>
      <trkpt lat="38.480498" lon="-77.255536">
        <ele>21.862296</ele>
        <time>2023-09-10T09:13:16.000Z</time>
      </trkpt>
      <trkpt lat="38.479805" lon="-77.255387">
        <ele>21.62029</ele>
        <time>2023-09-10T09:13:24.000Z</time>
      </trkpt>
      <trkpt lat="38.47923" lon="-77.255259">
        <ele>21.423516</ele>
        <time>2023-09-10T09:13:30.000Z</time>
      </trkpt>
      <trkpt lat="38.479009" lon="-77.255208">
        <ele>21.349449</ele>
        <time>2023-09-10T09:13:32.000Z</time>
      </trkpt>
      <trkpt lat="38.47818" lon="-77.255019">
        <ele>20.820629</ele>
        <time>2023-09-10T09:13:41.000Z</time>
      </trkpt>
      <trkpt lat="38.477513" lon="-77.254852">
        <ele>20.37953</ele>
        <time>2023-09-10T09:13:49.000Z</time>
      </trkpt>
      <trkpt lat="38.469376" lon="-77.253121">
        <ele>17.006739</ele>
        <time>2023-09-10T09:15:21.000Z</time>
      </trkpt>
      <trkpt lat="38.467473" lon="-77.252707">
        <ele>18.999203</ele>
        <time>2023-09-10T09:15:42.000Z</time>
      </trkpt>
      <trkpt lat="38.467057" lon="-77.252618">
        <ele>19.633793</ele>
        <time>2023-09-10T09:15:47.000Z</time>
      </trkpt>
      <trkpt lat="38.466653" lon="-77.252491">
        <ele>20.309833</ele>
        <time>2023-09-10T09:15:52.000Z</time>
      </trkpt>
      <trkpt lat="38.465632" lon="-77.252255">
        <ele>21.83102</ele>
        <time>2023-09-10T09:16:04.000Z</time>
      </trkpt>
      <trkpt lat="38.465257" lon="-77.252192">
        <ele>22.377267</ele>
        <time>2023-09-10T09:16:08.000Z</time>
      </trkpt>
      <trkpt lat="38.464866" lon="-77.252105">
        <ele>22.944027</ele>
        <time>2023-09-10T09:16:12.000Z</time>
      </trkpt>
      <trkpt lat="38.464672" lon="-77.252052">
        <ele>23.142328</ele>
        <time>2023-09-10T09:16:14.000Z</time>
      </trkpt>
      <trkpt lat="38.464215" lon="-77.251956">
        <ele>23.499117</ele>
        <time>2023-09-10T09:16:19.000Z</time>
      </trkpt>
      <trkpt lat="38.463413" lon="-77.251783">
        <ele>24.099973</ele>
        <time>2023-09-10T09:16:28.000Z</time>
      </trkpt>
      <trkpt lat="38.462988" lon="-77.251725">
        <ele>24.392913</ele>
        <time>2023-09-10T09:16:33.000Z</time>
      </trkpt>
      <trkpt lat="38.4626" lon="-77.251658">
        <ele>24.328606</ele>
        <time>2023-09-10T09:16:37.000Z</time>
      </trkpt>
      <trkpt lat="38.461473" lon="-77.251369">
        <ele>24.146518</ele>
        <time>2023-09-10T09:16:50.000Z</time>
      </trkpt>
      <trkpt lat="38.459309" lon="-77.250933">
        <ele>23.211894</ele>
        <time>2023-09-10T09:17:14.000Z</time>
      </trkpt>
      <trkpt lat="38.458639" lon="-77.250756">
        <ele>23.483704</ele>
        <time>2023-09-10T09:17:22.000Z</time>
      </trkpt>
      <trkpt lat="38.458639" lon="-77.249159">
        <ele>23.99913</ele>
        <time>2023-09-10T09:17:36.000Z</time>
      </trkpt>
      <trkpt lat="38.458627" lon="-77.248152">
        <ele>24.38733</ele>
        <time>2023-09-10T09:17:45.000Z</time>
      </trkpt>
      <trkpt lat="38.458555" lon="-77.247674">
        <ele>24.570281</ele>
        <time>2023-09-10T09:17:49.000Z</time>
      </trkpt>
      <trkpt lat="38.45852" lon="-77.247456">
        <ele>24.654883</ele>
        <time>2023-09-10T09:17:51.000Z</time>
      </trkpt>
      <trkpt lat="38.458362" lon="-77.246914">
        <ele>24.566009</ele>
        <time>2023-09-10T09:17:56.000Z</time>
      </trkpt>
      <trkpt lat="38.458033" lon="-77.246136">
        <ele>24.195393</ele>
        <time>2023-09-10T09:18:04.000Z</time>
      </trkpt>
      <trkpt lat="38.457656" lon="-77.245113">
        <ele>23.697766</ele>
        <time>2023-09-10T09:18:14.000Z</time>
      </trkpt>
      <trkpt lat="38.456981" lon="-77.243429">
        <ele>22.59791</ele>
        <time>2023-09-10T09:18:30.000Z</time>
      </trkpt>
      <trkpt lat="38.456926" lon="-77.243298">
        <ele>22.502587</ele>
        <time>2023-09-10T09:18:31.000Z</time>
      </trkpt>
      <trkpt lat="38.456866" lon="-77.243126">
        <ele>22.400901</ele>
        <time>2023-09-10T09:18:33.000Z</time>
      </trkpt>
      <trkpt lat="38.456653" lon="-77.242579">
        <ele>22.15092</ele>
        <time>2023-09-10T09:18:38.000Z</time>
      </trkpt>
      <trkpt lat="38.45649" lon="-77.242154">
        <ele>21.946994</ele>
        <time>2023-09-10T09:18:42.000Z</time>
      </trkpt>
      <trkpt lat="38.456006" lon="-77.240886">
        <ele>21.375944</ele>
        <time>2023-09-10T09:18:54.000Z</time>
      </trkpt>
      <trkpt lat="38.455794" lon="-77.2404">
        <ele>21.167138</ele>
        <time>2023-09-10T09:18:59.000Z</time>
      </trkpt>
      <trkpt lat="38.455726" lon="-77.240192">
        <ele>21.081081</ele>
        <time>2023-09-10T09:19:01.000Z</time>
      </trkpt>
      <trkpt lat="38.454758" lon="-77.237683">
        <ele>20.0491</ele>
        <time>2023-09-10T09:19:25.000Z</time>
      </trkpt>
      <trkpt lat="38.454632" lon="-77.237368">
        <ele>19.929633</ele>
        <time>2023-09-10T09:19:28.000Z</time>
      </trkpt>
      <trkpt lat="38.454535" lon="-77.23713">
        <ele>19.832896</ele>
        <time>2023-09-10T09:19:30.000Z</time>
      </trkpt>
      <trkpt lat="38.454247" lon="-77.236377">
        <ele>19.566969</ele>
        <time>2023-09-10T09:19:37.000Z</time>
      </trkpt>
      <trkpt lat="38.454095" lon="-77.236005">
        <ele>19.43445</ele>
        <time>2023-09-10T09:19:41.000Z</time>
      </trkpt>
      <trkpt lat="38.453833" lon="-77.235553">
        <ele>19.267143</ele>
        <time>2023-09-10T09:19:46.000Z</time>
      </trkpt>
      <trkpt lat="38.453292" lon="-77.235001">
        <ele>18.968266</ele>
        <time>2023-09-10T09:19:54.000Z</time>
      </trkpt>
      <trkpt lat="38.45305" lon="-77.234675">
        <ele>18.763486</ele>
        <time>2023-09-10T09:19:58.000Z</time>
      </trkpt>
      <trkpt lat="38.452932" lon="-77.234427">
        <ele>18.628481</ele>
        <time>2023-09-10T09:20:01.000Z</time>
      </trkpt>
      <trkpt lat="38.452875" lon="-77.234217">
        <ele>18.527166</ele>
        <time>2023-09-10T09:20:03.000Z</time>
      </trkpt>
      <trkpt lat="38.452837" lon="-77.233869">
        <ele>18.367427</ele>
        <time>2023-09-10T09:20:06.000Z</time>
      </trkpt>
      <trkpt lat="38.452842" lon="-77.233616">
        <ele>18.256091</ele>
        <time>2023-09-10T09:20:08.000Z</time>
      </trkpt>
      <trkpt lat="38.452926" lon="-77.233118">
        <ele>18.02502</ele>
        <time>2023-09-10T09:20:12.000Z</time>
      </trkpt>
      <trkpt lat="38.453409" lon="-77.230856">
        <ele>17.236152</ele>
        <time>2023-09-10T09:20:32.000Z</time>
      </trkpt>
      <trkpt lat="38.45355" lon="-77.229932">
        <ele>17.990067</ele>
        <time>2023-09-10T09:20:40.000Z</time>
      </trkpt>
      <trkpt lat="38.453875" lon="-77.22743">
        <ele>20.368316</ele>
        <time>2023-09-10T09:21:02.000Z</time>
      </trkpt>
      <trkpt lat="38.453987" lon="-77.226407">
        <ele>21.462658</ele>
        <time>2023-09-10T09:21:11.000Z</time>
      </trkpt>
      <trkpt lat="38.454306" lon="-77.222972">
        <ele>23.277891</ele>
        <time>2023-09-10T09:21:41.000Z</time>
      </trkpt>
      <trkpt lat="38.454452" lon="-77.221105">
        <ele>23.819803</ele>
        <time>2023-09-10T09:21:57.000Z</time>
      </trkpt>
      <trkpt lat="38.454484" lon="-77.220302">
        <ele>23.891354</ele>
        <time>2023-09-10T09:22:04.000Z</time>
      </trkpt>
      <trkpt lat="38.454469" lon="-77.219419">
        <ele>23.907378</ele>
        <time>2023-09-10T09:22:12.000Z</time>
      </trkpt>
      <trkpt lat="38.454495" lon="-77.219036">
        <ele>23.748718</ele>
        <time>2023-09-10T09:22:15.000Z</time>
      </trkpt>
      <trkpt lat="38.45451" lon="-77.218784">
        <ele>23.6401</ele>
        <time>2023-09-10T09:22:17.000Z</time>
      </trkpt>
      <trkpt lat="38.45457" lon="-77.218442">
        <ele>23.497928</ele>
        <time>2023-09-10T09:22:20.000Z</time>
      </trkpt>
      <trkpt lat="38.454654" lon="-77.218042">
        <ele>23.325494</ele>
        <time>2023-09-10T09:22:24.000Z</time>
      </trkpt>
      <trkpt lat="38.454755" lon="-77.217659">
        <ele>23.157501</ele>
        <time>2023-09-10T09:22:28.000Z</time>
      </trkpt>
      <trkpt lat="38.454811" lon="-77.217377">
        <ele>23.034146</ele>
        <time>2023-09-10T09:22:31.000Z</time>
      </trkpt>
      <trkpt lat="38.454897" lon="-77.217014">
        <ele>22.842351</ele>
        <time>2023-09-10T09:22:34.000Z</time>
      </trkpt>
      <trkpt lat="38.455065" lon="-77.216242">
        <ele>22.412861</ele>
        <time>2023-09-10T09:22:41.000Z</time>
      </trkpt>
      <trkpt lat="38.455134" lon="-77.215922">
        <ele>22.235739</ele>
        <time>2023-09-10T09:22:44.000Z</time>
      </trkpt>
      <trkpt lat="38.455182" lon="-77.215712">
        <ele>22.128205</ele>
        <time>2023-09-10T09:22:46.000Z</time>
      </trkpt>
      <trkpt lat="38.455404" lon="-77.214662">
        <ele>21.796213</ele>
        <time>2023-09-10T09:22:55.000Z</time>
      </trkpt>
      <trkpt lat="38.457328" lon="-77.215586">
        <ele>22.120565</ele>
        <time>2023-09-10T09:23:18.000Z</time>
      </trkpt>
      <trkpt lat="38.458572" lon="-77.216187">
        <ele>22.686735</ele>
        <time>2023-09-10T09:23:33.000Z</time>
      </trkpt>
      <trkpt lat="38.459587" lon="-77.216668">
        <ele>23.107331</ele>
        <time>2023-09-10T09:23:45.000Z</time>
      </trkpt>
      <trkpt lat="38.459828" lon="-77.216805">
        <ele>23.214853</ele>
        <time>2023-09-10T09:23:48.000Z</time>
      </trkpt>
      <trkpt lat="38.45989" lon="-77.216825">
        <ele>23.238637</ele>
        <time>2023-09-10T09:23:49.000Z</time>
      </trkpt>
      <trkpt lat="38.460544" lon="-77.217129">
        <ele>23.15243</ele>
        <time>2023-09-10T09:23:57.000Z</time>
      </trkpt>
      <trkpt lat="38.460598" lon="-77.217158">
        <ele>23.12925</ele>
        <time>2023-09-10T09:23:58.000Z</time>
      </trkpt>
      <trkpt lat="38.460968" lon="-77.217346">
        <ele>22.96021</ele>
        <time>2023-09-10T09:24:02.000Z</time>
      </trkpt>
      <trkpt lat="38.461373" lon="-77.217561">
        <ele>22.773039</ele>
        <time>2023-09-10T09:24:07.000Z</time>
      </trkpt>
      <trkpt lat="38.462022" lon="-77.217876">
        <ele>22.54867</ele>
        <time>2023-09-10T09:24:15.000Z</time>
      </trkpt>
      <trkpt lat="38.463268" lon="-77.218667">
        <ele>22.361328</ele>
        <time>2023-09-10T09:24:30.000Z</time>
      </trkpt>
      <trkpt lat="38.46354" lon="-77.218861">
        <ele>22.425188</ele>
        <time>2023-09-10T09:24:33.000Z</time>
      </trkpt>
      <trkpt lat="38.464059" lon="-77.219217">
        <ele>22.845112</ele>
        <time>2023-09-10T09:24:40.000Z</time>
      </trkpt>
      <trkpt lat="38.46472" lon="-77.219721">
        <ele>23.377676</ele>
        <time>2023-09-10T09:24:49.000Z</time>
      </trkpt>
      <trkpt lat="38.465553" lon="-77.220319">
        <ele>23.82283</ele>
        <time>2023-09-10T09:25:00.000Z</time>
      </trkpt>
      <trkpt lat="38.466201" lon="-77.220697">
        <ele>24.067903</ele>
        <time>2023-09-10T09:25:08.000Z</time>
      </trkpt>
      <trkpt lat="38.466731" lon="-77.220952">
        <ele>24.21264</ele>
        <time>2023-09-10T09:25:14.000Z</time>
      </trkpt>
      <trkpt lat="38.467406" lon="-77.221228">
        <ele>24.201447</ele>
        <time>2023-09-10T09:25:22.000Z</time>
      </trkpt>
      <trkpt lat="38.467465" lon="-77.221245">
        <ele>24.200759</ele>
        <time>2023-09-10T09:25:23.000Z</time>
      </trkpt>
      <trkpt lat="38.467566" lon="-77.221277">
        <ele>24.199043</ele>
        <time>2023-09-10T09:25:24.000Z</time>
      </trkpt>
      <trkpt lat="38.46853" lon="-77.22165">
        <ele>24.174511</ele>
        <time>2023-09-10T09:25:35.000Z</time>
      </trkpt>
      <trkpt lat="38.469023" lon="-77.221887">
        <ele>24.14418</ele>
        <time>2023-09-10T09:25:41.000Z</time>
      </trkpt>
      <trkpt lat="38.469352" lon="-77.222115">
        <ele>24.12252</ele>
        <time>2023-09-10T09:25:45.000Z</time>
      </trkpt>
      <trkpt lat="38.469684" lon="-77.22236">
        <ele>24.101118</ele>
        <time>2023-09-10T09:25:49.000Z</time>
      </trkpt>
      <trkpt lat="38.470228" lon="-77.222841">
        <ele>24.193613</ele>
        <time>2023-09-10T09:25:56.000Z</time>
      </trkpt>
      <trkpt lat="38.470783" lon="-77.223381">
        <ele>24.414243</ele>
        <time>2023-09-10T09:26:04.000Z</time>
      </trkpt>
      <trkpt lat="38.471632" lon="-77.224214">
        <ele>24.719843</ele>
        <time>2023-09-10T09:26:16.000Z</time>
      </trkpt>
      <trkpt lat="38.472075" lon="-77.22458">
        <ele>24.842958</ele>
        <time>2023-09-10T09:26:22.000Z</time>
      </trkpt>
      <trkpt lat="38.472089" lon="-77.224593">
        <ele>24.850547</ele>
        <time>2023-09-10T09:26:22.000Z</time>
      </trkpt>
      <trkpt lat="38.472331" lon="-77.224756">
        <ele>24.913814</ele>
        <time>2023-09-10T09:26:25.000Z</time>
      </trkpt>
      <trkpt lat="38.472667" lon="-77.22495">
        <ele>25.000466</ele>
        <time>2023-09-10T09:26:29.000Z</time>
      </trkpt>
      <trkpt lat="38.473126" lon="-77.225168">
        <ele>25.269821</ele>
        <time>2023-09-10T09:26:34.000Z</time>
      </trkpt>
      <trkpt lat="38.473857" lon="-77.225389">
        <ele>25.999204</ele>
        <time>2023-09-10T09:26:42.000Z</time>
      </trkpt>
      <trkpt lat="38.474905" lon="-77.225578">
        <ele>27.102663</ele>
        <time>2023-09-10T09:26:54.000Z</time>
      </trkpt>
      <trkpt lat="38.475219" lon="-77.225659">
        <ele>27.525112</ele>
        <time>2023-09-10T09:26:58.000Z</time>
      </trkpt>
      <trkpt lat="38.475692" lon="-77.225829">
        <ele>28.192278</ele>
        <time>2023-09-10T09:27:03.000Z</time>
      </trkpt>
      <trkpt lat="38.47596" lon="-77.225971">
        <ele>28.554821</ele>
        <time>2023-09-10T09:27:06.000Z</time>
      </trkpt>
      <trkpt lat="38.476198" lon="-77.226116">
        <ele>28.911517</ele>
        <time>2023-09-10T09:27:09.000Z</time>
      </trkpt>
      <trkpt lat="38.47684" lon="-77.226597">
        <ele>29.459016</ele>
        <time>2023-09-10T09:27:17.000Z</time>
      </trkpt>
      <trkpt lat="38.477398" lon="-77.227025">
        <ele>29.765273</ele>
        <time>2023-09-10T09:27:24.000Z</time>
      </trkpt>
      <trkpt lat="38.477766" lon="-77.227323">
        <ele>29.976812</ele>
        <time>2023-09-10T09:27:29.000Z</time>
      </trkpt>
      <trkpt lat="38.478112" lon="-77.227547">
        <ele>29.985128</ele>
        <time>2023-09-10T09:27:33.000Z</time>
      </trkpt>
      <trkpt lat="38.478356" lon="-77.2277">
        <ele>29.883725</ele>
        <time>2023-09-10T09:27:36.000Z</time>
      </trkpt>
      <trkpt lat="38.478908" lon="-77.228037">
        <ele>29.645943</ele>
        <time>2023-09-10T09:27:43.000Z</time>
      </trkpt>
      <trkpt lat="38.479511" lon="-77.228331">
        <ele>29.396499</ele>
        <time>2023-09-10T09:27:50.000Z</time>
      </trkpt>
      <trkpt lat="38.480333" lon="-77.228644">
        <ele>28.418042</ele>
        <time>2023-09-10T09:28:00.000Z</time>
      </trkpt>
      <trkpt lat="38.482199" lon="-77.229266">
        <ele>26.457975</ele>
        <time>2023-09-10T09:28:21.000Z</time>
      </trkpt>
      <trkpt lat="38.48255" lon="-77.229393">
        <ele>26.177377</ele>
        <time>2023-09-10T09:28:25.000Z</time>
      </trkpt>
      <trkpt lat="38.482605" lon="-77.229407">
        <ele>26.133455</ele>
        <time>2023-09-10T09:28:26.000Z</time>
      </trkpt>
      <trkpt lat="38.484118" lon="-77.229904">
        <ele>27.493405</ele>
        <time>2023-09-10T09:28:43.000Z</time>
      </trkpt>
      <trkpt lat="38.486774" lon="-77.230792">
        <ele>34.330496</ele>
        <time>2023-09-10T09:29:14.000Z</time>
      </trkpt>
      <trkpt lat="38.48772" lon="-77.23111">
        <ele>35.831194</ele>
        <time>2023-09-10T09:29:25.000Z</time>
      </trkpt>
      <trkpt lat="38.488335" lon="-77.231171">
        <ele>36.720434</ele>
        <time>2023-09-10T09:29:32.000Z</time>
      </trkpt>
      <trkpt lat="38.488656" lon="-77.231141">
        <ele>36.855623</ele>
        <time>2023-09-10T09:29:36.000Z</time>
      </trkpt>
      <trkpt lat="38.489035" lon="-77.231049">
        <ele>37.013025</ele>
        <time>2023-09-10T09:29:40.000Z</time>
      </trkpt>
      <trkpt lat="38.489395" lon="-77.230903">
        <ele>37.170383</ele>
        <time>2023-09-10T09:29:44.000Z</time>
      </trkpt>
      <trkpt lat="38.48982" lon="-77.230628">
        <ele>37.367693</ele>
        <time>2023-09-10T09:29:49.000Z</time>
      </trkpt>
      <trkpt lat="38.490165" lon="-77.230363">
        <ele>37.579546</ele>
        <time>2023-09-10T09:29:53.000Z</time>
      </trkpt>
      <trkpt lat="38.490464" lon="-77.230039">
        <ele>37.84065</ele>
        <time>2023-09-10T09:29:57.000Z</time>
      </trkpt>
      <trkpt lat="38.491398" lon="-77.228949">
        <ele>38.64626</ele>
        <time>2023-09-10T09:30:11.000Z</time>
      </trkpt>
      <trkpt lat="38.491652" lon="-77.228644">
        <ele>38.728637</ele>
        <time>2023-09-10T09:30:15.000Z</time>
      </trkpt>
      <trkpt lat="38.491946" lon="-77.228304">
        <ele>38.82064</ele>
        <time>2023-09-10T09:30:19.000Z</time>
      </trkpt>
      <trkpt lat="38.492495" lon="-77.227657">
        <ele>38.992595</ele>
        <time>2023-09-10T09:30:27.000Z</time>
      </trkpt>
      <trkpt lat="38.493052" lon="-77.226982">
        <ele>39.343204</ele>
        <time>2023-09-10T09:30:36.000Z</time>
      </trkpt>
      <trkpt lat="38.49345" lon="-77.226489">
        <ele>39.652552</ele>
        <time>2023-09-10T09:30:42.000Z</time>
      </trkpt>
      <trkpt lat="38.494205" lon="-77.225428">
        <ele>40.219798</ele>
        <time>2023-09-10T09:30:54.000Z</time>
      </trkpt>
      <trkpt lat="38.49445" lon="-77.225045">
        <ele>40.380461</ele>
        <time>2023-09-10T09:30:58.000Z</time>
      </trkpt>
      <trkpt lat="38.495285" lon="-77.223588">
        <ele>40.717544</ele>
        <time>2023-09-10T09:31:14.000Z</time>
      </trkpt>
      <trkpt lat="38.495949" lon="-77.222385">
        <ele>40.542219</ele>
        <time>2023-09-10T09:31:27.000Z</time>
      </trkpt>
      <trkpt lat="38.496466" lon="-77.221426">
        <ele>39.820886</ele>
        <time>2023-09-10T09:31:37.000Z</time>
      </trkpt>
      <trkpt lat="38.496686" lon="-77.22097">
        <ele>39.386508</ele>
        <time>2023-09-10T09:31:42.000Z</time>
      </trkpt>
      <trkpt lat="38.496788" lon="-77.220715">
        <ele>39.173498</ele>
        <time>2023-09-10T09:31:44.000Z</time>
      </trkpt>
      <trkpt lat="38.496987" lon="-77.220009">
        <ele>38.579367</ele>
        <time>2023-09-10T09:31:51.000Z</time>
      </trkpt>
      <trkpt lat="38.497053" lon="-77.219669">
        <ele>38.29613</ele>
        <time>2023-09-10T09:31:54.000Z</time>
      </trkpt>
      <trkpt lat="38.497121" lon="-77.219073">
        <ele>37.805101</ele>
        <time>2023-09-10T09:31:59.000Z</time>
      </trkpt>
      <trkpt lat="38.497137" lon="-77.218108">
        <ele>37.005963</ele>
        <time>2023-09-10T09:32:07.000Z</time>
      </trkpt>
      <trkpt lat="38.497154" lon="-77.216869">
        <ele>37.599553</ele>
        <time>2023-09-10T09:32:18.000Z</time>
      </trkpt>
      <trkpt lat="38.497227" lon="-77.215832">
        <ele>38.419591</ele>
        <time>2023-09-10T09:32:27.000Z</time>
      </trkpt>
      <trkpt lat="38.497368" lon="-77.214897">
        <ele>39.38722</ele>
        <time>2023-09-10T09:32:35.000Z</time>
      </trkpt>
      <trkpt lat="38.497432" lon="-77.21449">
        <ele>39.87341</ele>
        <time>2023-09-10T09:32:39.000Z</time>
      </trkpt>
      <trkpt lat="38.497698" lon="-77.213155">
        <ele>41.317687</ele>
        <time>2023-09-10T09:32:51.000Z</time>
      </trkpt>
      <trkpt lat="38.497847" lon="-77.212165">
        <ele>41.916735</ele>
        <time>2023-09-10T09:33:00.000Z</time>
      </trkpt>
      <trkpt lat="38.498022" lon="-77.210626">
        <ele>42.301222</ele>
        <time>2023-09-10T09:33:14.000Z</time>
      </trkpt>
      <trkpt lat="38.4981" lon="-77.208587">
        <ele>40.98973</ele>
        <time>2023-09-10T09:33:32.000Z</time>
      </trkpt>
      <trkpt lat="38.498217" lon="-77.203993">
        <ele>36.214279</ele>
        <time>2023-09-10T09:34:12.000Z</time>
      </trkpt>
      <trkpt lat="38.498255" lon="-77.203414">
        <ele>36.091008</ele>
        <time>2023-09-10T09:34:17.000Z</time>
      </trkpt>
      <trkpt lat="38.49833" lon="-77.202796">
        <ele>35.96141</ele>
        <time>2023-09-10T09:34:22.000Z</time>
      </trkpt>
      <trkpt lat="38.498492" lon="-77.201589">
        <ele>35.947856</ele>
        <time>2023-09-10T09:34:33.000Z</time>
      </trkpt>
      <trkpt lat="38.498906" lon="-77.19897">
        <ele>37.389382</ele>
        <time>2023-09-10T09:34:56.000Z</time>
      </trkpt>
      <trkpt lat="38.498964" lon="-77.198589">
        <ele>37.616148</ele>
        <time>2023-09-10T09:34:59.000Z</time>
      </trkpt>
      <trkpt lat="38.499016" lon="-77.198327">
        <ele>37.780355</ele>
        <time>2023-09-10T09:35:01.000Z</time>
      </trkpt>
      <trkpt lat="38.499109" lon="-77.197707">
        <ele>38.152318</ele>
        <time>2023-09-10T09:35:06.000Z</time>
      </trkpt>
      <trkpt lat="38.49916" lon="-77.197115">
        <ele>38.505267</ele>
        <time>2023-09-10T09:35:11.000Z</time>
      </trkpt>
      <trkpt lat="38.499161" lon="-77.195292">
        <ele>39.58866</ele>
        <time>2023-09-10T09:35:27.000Z</time>
      </trkpt>
      <trkpt lat="38.499171" lon="-77.195305">
        <ele>39.591064</ele>
        <time>2023-09-10T09:35:27.000Z</time>
      </trkpt>
      <trkpt lat="38.499217" lon="-77.194896">
        <ele>39.747856</ele>
        <time>2023-09-10T09:35:31.000Z</time>
      </trkpt>
      <trkpt lat="38.499416" lon="-77.193922">
        <ele>39.943169</ele>
        <time>2023-09-10T09:35:40.000Z</time>
      </trkpt>
      <trkpt lat="38.499793" lon="-77.192489">
        <ele>40.184168</ele>
        <time>2023-09-10T09:35:53.000Z</time>
      </trkpt>
      <trkpt lat="38.500079" lon="-77.191296">
        <ele>40.268445</ele>
        <time>2023-09-10T09:36:04.000Z</time>
      </trkpt>
      <trkpt lat="38.500153" lon="-77.190829">
        <ele>40.300321</ele>
        <time>2023-09-10T09:36:08.000Z</time>
      </trkpt>
      <trkpt lat="38.500189" lon="-77.19058">
        <ele>40.356292</ele>
        <time>2023-09-10T09:36:10.000Z</time>
      </trkpt>
      <trkpt lat="38.500203" lon="-77.188495">
        <ele>41.15186</ele>
        <time>2023-09-10T09:36:28.000Z</time>
      </trkpt>
      <trkpt lat="38.500216" lon="-77.187918">
        <ele>41.354255</ele>
        <time>2023-09-10T09:36:33.000Z</time>
      </trkpt>
      <trkpt lat="38.50021" lon="-77.186848">
        <ele>41.729441</ele>
        <time>2023-09-10T09:36:42.000Z</time>
      </trkpt>
      <trkpt lat="38.500206" lon="-77.186007">
        <ele>41.942162</ele>
        <time>2023-09-10T09:36:49.000Z</time>
      </trkpt>
      <trkpt lat="38.5002" lon="-77.184949">
        <ele>41.270076</ele>
        <time>2023-09-10T09:36:58.000Z</time>
      </trkpt>
      <trkpt lat="38.500116" lon="-77.184439">
        <ele>40.942833</ele>
        <time>2023-09-10T09:37:03.000Z</time>
      </trkpt>
      <trkpt lat="38.500052" lon="-77.184147">
        <ele>40.756942</ele>
        <time>2023-09-10T09:37:06.000Z</time>
      </trkpt>
      <trkpt lat="38.500002" lon="-77.183964">
        <ele>40.632396</ele>
        <time>2023-09-10T09:37:08.000Z</time>
      </trkpt>
      <trkpt lat="38.499773" lon="-77.183136">
        <ele>40.157682</ele>
        <time>2023-09-10T09:37:16.000Z</time>
      </trkpt>
      <trkpt lat="38.499678" lon="-77.182846">
        <ele>40.000052</ele>
        <time>2023-09-10T09:37:19.000Z</time>
      </trkpt>
      <trkpt lat="38.49924" lon="-77.181547">
        <ele>39.464457</ele>
        <time>2023-09-10T09:37:31.000Z</time>
      </trkpt>
      <trkpt lat="38.499213" lon="-77.181483">
        <ele>39.510094</ele>
        <time>2023-09-10T09:37:32.000Z</time>
      </trkpt>
      <trkpt lat="38.49899" lon="-77.180838">
        <ele>39.92467</ele>
        <time>2023-09-10T09:37:38.000Z</time>
      </trkpt>
      <trkpt lat="38.498793" lon="-77.18021">
        <ele>40.322371</ele>
        <time>2023-09-10T09:37:44.000Z</time>
      </trkpt>
      <trkpt lat="38.498597" lon="-77.1796">
        <ele>40.717299</ele>
        <time>2023-09-10T09:37:50.000Z</time>
      </trkpt>
      <trkpt lat="38.498573" lon="-77.179517">
        <ele>40.736991</ele>
        <time>2023-09-10T09:37:51.000Z</time>
      </trkpt>
      <trkpt lat="38.498391" lon="-77.179114">
        <ele>40.852117</ele>
        <time>2023-09-10T09:37:55.000Z</time>
      </trkpt>
      <trkpt lat="38.498143" lon="-77.178727">
        <ele>40.973718</ele>
        <time>2023-09-10T09:37:59.000Z</time>
      </trkpt>
      <trkpt lat="38.497634" lon="-77.17813">
        <ele>41.190513</ele>
        <time>2023-09-10T09:38:07.000Z</time>
      </trkpt>
      <trkpt lat="38.497577" lon="-77.17807">
        <ele>41.214089</ele>
        <time>2023-09-10T09:38:08.000Z</time>
      </trkpt>
      <trkpt lat="38.497525" lon="-77.177995">
        <ele>41.23662</ele>
        <time>2023-09-10T09:38:09.000Z</time>
      </trkpt>
      <trkpt lat="38.497311" lon="-77.177766">
        <ele>41.216897</ele>
        <time>2023-09-10T09:38:12.000Z</time>
      </trkpt>
      <trkpt lat="38.497094" lon="-77.177527">
        <ele>41.093845</ele>
        <time>2023-09-10T09:38:15.000Z</time>
      </trkpt>
      <trkpt lat="38.496781" lon="-77.177154">
        <ele>40.901506</ele>
        <time>2023-09-10T09:38:20.000Z</time>
      </trkpt>
      <trkpt lat="38.496709" lon="-77.177081">
        <ele>40.864361</ele>
        <time>2023-09-10T09:38:21.000Z</time>
      </trkpt>
      <trkpt lat="38.496382" lon="-77.176702">
        <ele>40.674151</ele>
        <time>2023-09-10T09:38:26.000Z</time>
      </trkpt>
      <trkpt lat="38.495662" lon="-77.175871">
        <ele>40.435661</ele>
        <time>2023-09-10T09:38:37.000Z</time>
      </trkpt>
      <trkpt lat="38.495544" lon="-77.175731">
        <ele>40.418879</ele>
        <time>2023-09-10T09:38:39.000Z</time>
      </trkpt>
      <trkpt lat="38.495201" lon="-77.175275">
        <ele>40.367476</ele>
        <time>2023-09-10T09:38:45.000Z</time>
      </trkpt>
      <trkpt lat="38.495058" lon="-77.174985">
        <ele>40.339286</ele>
        <time>2023-09-10T09:38:48.000Z</time>
      </trkpt>
      <trkpt lat="38.494918" lon="-77.174576">
        <ele>40.285069</ele>
        <time>2023-09-10T09:38:52.000Z</time>
      </trkpt>
      <trkpt lat="38.494734" lon="-77.174006">
        <ele>40.039085</ele>
        <time>2023-09-10T09:38:57.000Z</time>
      </trkpt>
      <trkpt lat="38.494624" lon="-77.173443">
        <ele>39.798668</ele>
        <time>2023-09-10T09:39:02.000Z</time>
      </trkpt>
      <trkpt lat="38.494433" lon="-77.172273">
        <ele>39.319827</ele>
        <time>2023-09-10T09:39:12.000Z</time>
      </trkpt>
      <trkpt lat="38.494207" lon="-77.171516">
        <ele>39.048837</ele>
        <time>2023-09-10T09:39:19.000Z</time>
      </trkpt>
      <trkpt lat="38.493917" lon="-77.170675">
        <ele>38.733738</ele>
        <time>2023-09-10T09:39:27.000Z</time>
      </trkpt>
      <trkpt lat="38.49386" lon="-77.170381">
        <ele>38.631315</ele>
        <time>2023-09-10T09:39:30.000Z</time>
      </trkpt>
      <trkpt lat="38.493814" lon="-77.170069">
        <ele>38.614742</ele>
        <time>2023-09-10T09:39:33.000Z</time>
      </trkpt>
      <trkpt lat="38.493824" lon="-77.168846">
        <ele>38.805831</ele>
        <time>2023-09-10T09:39:44.000Z</time>
      </trkpt>
      <trkpt lat="38.493799" lon="-77.168427">
        <ele>38.869779</ele>
        <time>2023-09-10T09:39:48.000Z</time>
      </trkpt>
      <trkpt lat="38.493683" lon="-77.167902">
        <ele>38.968408</ele>
        <time>2023-09-10T09:39:53.000Z</time>
      </trkpt>
      <trkpt lat="38.493546" lon="-77.167504">
        <ele>39.115527</ele>
        <time>2023-09-10T09:39:57.000Z</time>
      </trkpt>
      <trkpt lat="38.493285" lon="-77.166971">
        <ele>39.324522</ele>
        <time>2023-09-10T09:40:02.000Z</time>
      </trkpt>
      <trkpt lat="38.493152" lon="-77.166684">
        <ele>39.437921</ele>
        <time>2023-09-10T09:40:05.000Z</time>
      </trkpt>
      <trkpt lat="38.493065" lon="-77.166517">
        <ele>39.503838</ele>
        <time>2023-09-10T09:40:07.000Z</time>
      </trkpt>
      <trkpt lat="38.492937" lon="-77.166196">
        <ele>39.623382</ele>
        <time>2023-09-10T09:40:10.000Z</time>
      </trkpt>
      <trkpt lat="38.492787" lon="-77.165644">
        <ele>39.496321</ele>
        <time>2023-09-10T09:40:15.000Z</time>
      </trkpt>
      <trkpt lat="38.49264" lon="-77.164958">
        <ele>39.031558</ele>
        <time>2023-09-10T09:40:21.000Z</time>
      </trkpt>
      <trkpt lat="38.492551" lon="-77.164453">
        <ele>38.686153</ele>
        <time>2023-09-10T09:40:26.000Z</time>
      </trkpt>
      <trkpt lat="38.492447" lon="-77.163877">
        <ele>38.305428</ele>
        <time>2023-09-10T09:40:31.000Z</time>
      </trkpt>
      <trkpt lat="38.492419" lon="-77.163803">
        <ele>38.243417</ele>
        <time>2023-09-10T09:40:32.000Z</time>
      </trkpt>
      <trkpt lat="38.492208" lon="-77.162612">
        <ele>37.843571</ele>
        <time>2023-09-10T09:40:43.000Z</time>
      </trkpt>
      <trkpt lat="38.492033" lon="-77.161742">
        <ele>37.570147</ele>
        <time>2023-09-10T09:40:51.000Z</time>
      </trkpt>
      <trkpt lat="38.491945" lon="-77.16132">
        <ele>37.645311</ele>
        <time>2023-09-10T09:40:55.000Z</time>
      </trkpt>
      <trkpt lat="38.491658" lon="-77.159873">
        <ele>38.809481</ele>
        <time>2023-09-10T09:41:08.000Z</time>
      </trkpt>
      <trkpt lat="38.4918" lon="-77.15967">
        <ele>39.030091</ele>
        <time>2023-09-10T09:41:10.000Z</time>
      </trkpt>
      <trkpt lat="38.492305" lon="-77.159104">
        <ele>39.519431</ele>
        <time>2023-09-10T09:41:17.000Z</time>
      </trkpt>
      <trkpt lat="38.492429" lon="-77.158989">
        <ele>39.5972</ele>
        <time>2023-09-10T09:41:19.000Z</time>
      </trkpt>
      <trkpt lat="38.492674" lon="-77.158803">
        <ele>39.753578</ele>
        <time>2023-09-10T09:41:22.000Z</time>
      </trkpt>
      <trkpt lat="38.492791" lon="-77.158741">
        <ele>39.823459</ele>
        <time>2023-09-10T09:41:23.000Z</time>
      </trkpt>
      <trkpt lat="38.4931" lon="-77.158674">
        <ele>39.993891</ele>
        <time>2023-09-10T09:41:26.000Z</time>
      </trkpt>
      <trkpt lat="38.493503" lon="-77.158717">
        <ele>40.221378</ele>
        <time>2023-09-10T09:41:30.000Z</time>
      </trkpt>
      <trkpt lat="38.493533" lon="-77.158719">
        <ele>40.241447</ele>
        <time>2023-09-10T09:41:30.000Z</time>
      </trkpt>
      <trkpt lat="38.493655" lon="-77.158958">
        <ele>40.228289</ele>
        <time>2023-09-10T09:41:32.000Z</time>
      </trkpt>
      <trkpt lat="38.493999" lon="-77.159471">
        <ele>40.006279</ele>
        <time>2023-09-10T09:41:38.000Z</time>
      </trkpt>
      <trkpt lat="38.494659" lon="-77.160467">
        <ele>39.57887</ele>
        <time>2023-09-10T09:41:49.000Z</time>
      </trkpt>
      <trkpt lat="38.494865" lon="-77.160763">
        <ele>39.459415</ele>
        <time>2023-09-10T09:41:52.000Z</time>
      </trkpt>
      <trkpt lat="38.495283" lon="-77.161395">
        <ele>39.214019</ele>
        <time>2023-09-10T09:41:59.000Z</time>
      </trkpt>
      <trkpt lat="38.495328" lon="-77.161483">
        <ele>39.18198</ele>
        <time>2023-09-10T09:42:00.000Z</time>
      </trkpt>
      <trkpt lat="38.495352" lon="-77.161513">
        <ele>39.169607</ele>
        <time>2023-09-10T09:42:00.000Z</time>
      </trkpt>
      <trkpt lat="38.495942" lon="-77.162439">
        <ele>38.723069</ele>
        <time>2023-09-10T09:42:10.000Z</time>
      </trkpt>
      <trkpt lat="38.496478" lon="-77.163301">
        <ele>37.574307</ele>
        <time>2023-09-10T09:42:20.000Z</time>
      </trkpt>
      <trkpt lat="38.496657" lon="-77.163637">
        <ele>37.159265</ele>
        <time>2023-09-10T09:42:24.000Z</time>
      </trkpt>
      <trkpt lat="38.496892" lon="-77.164038">
        <ele>36.635554</ele>
        <time>2023-09-10T09:42:28.000Z</time>
      </trkpt>
      <trkpt lat="38.497421" lon="-77.1649">
        <ele>34.892047</ele>
        <time>2023-09-10T09:42:38.000Z</time>
      </trkpt>
      <trkpt lat="38.497765" lon="-77.165501">
        <ele>33.639171</ele>
        <time>2023-09-10T09:42:44.000Z</time>
      </trkpt>
      <trkpt lat="38.498104" lon="-77.166041">
        <ele>32.539118</ele>
        <time>2023-09-10T09:42:50.000Z</time>
      </trkpt>
      <trkpt lat="38.498409" lon="-77.166427">
        <ele>32.213958</ele>
        <time>2023-09-10T09:42:55.000Z</time>
      </trkpt>
      <trkpt lat="38.498554" lon="-77.166543">
        <ele>32.073101</ele>
        <time>2023-09-10T09:42:57.000Z</time>
      </trkpt>
      <trkpt lat="38.498875" lon="-77.166721">
        <ele>31.814925</ele>
        <time>2023-09-10T09:43:01.000Z</time>
      </trkpt>
      <trkpt lat="38.499788" lon="-77.167107">
        <ele>31.384846</ele>
        <time>2023-09-10T09:43:12.000Z</time>
      </trkpt>
      <trkpt lat="38.500903" lon="-77.167507">
        <ele>32.590973</ele>
        <time>2023-09-10T09:43:25.000Z</time>
      </trkpt>
      <trkpt lat="38.501043" lon="-77.167571">
        <ele>32.738765</ele>
        <time>2023-09-10T09:43:27.000Z</time>
      </trkpt>
      <trkpt lat="38.501423" lon="-77.167667">
        <ele>33.070436</ele>
        <time>2023-09-10T09:43:31.000Z</time>
      </trkpt>
      <trkpt lat="38.501732" lon="-77.167696">
        <ele>33.026326</ele>
        <time>2023-09-10T09:43:34.000Z</time>
      </trkpt>
      <trkpt lat="38.502284" lon="-77.167672">
        <ele>32.947664</ele>
        <time>2023-09-10T09:43:40.000Z</time>
      </trkpt>
      <trkpt lat="38.503004" lon="-77.16777">
        <ele>32.845307</ele>
        <time>2023-09-10T09:43:48.000Z</time>
      </trkpt>
      <trkpt lat="38.503052" lon="-77.167781">
        <ele>32.838048</ele>
        <time>2023-09-10T09:43:49.000Z</time>
      </trkpt>
      <trkpt lat="38.503786" lon="-77.167964">
        <ele>31.363423</ele>
        <time>2023-09-10T09:43:57.000Z</time>
      </trkpt>
      <trkpt lat="38.504125" lon="-77.167992">
        <ele>30.591975</ele>
        <time>2023-09-10T09:44:01.000Z</time>
      </trkpt>
      <trkpt lat="38.504422" lon="-77.167967">
        <ele>29.923685</ele>
        <time>2023-09-10T09:44:04.000Z</time>
      </trkpt>
      <trkpt lat="38.505125" lon="-77.167799">
        <ele>28.866057</ele>
        <time>2023-09-10T09:44:12.000Z</time>
      </trkpt>
      <trkpt lat="38.505501" lon="-77.167764">
        <ele>29.00524</ele>
        <time>2023-09-10T09:44:16.000Z</time>
      </trkpt>
      <trkpt lat="38.507071" lon="-77.16815">
        <ele>30.194705</ele>
        <time>2023-09-10T09:44:34.000Z</time>
      </trkpt>
      <trkpt lat="38.507862" lon="-77.168497">
        <ele>31.903224</ele>
        <time>2023-09-10T09:44:43.000Z</time>
      </trkpt>
      <trkpt lat="38.508264" lon="-77.168744">
        <ele>32.806824</ele>
        <time>2023-09-10T09:44:48.000Z</time>
      </trkpt>
      <trkpt lat="38.509578" lon="-77.169782">
        <ele>33.410353</ele>
        <time>2023-09-10T09:45:05.000Z</time>
      </trkpt>
      <trkpt lat="38.510612" lon="-77.170539">
        <ele>32.998723</ele>
        <time>2023-09-10T09:45:18.000Z</time>
      </trkpt>
      <trkpt lat="38.511421" lon="-77.170957">
        <ele>32.455132</ele>
        <time>2023-09-10T09:45:28.000Z</time>
      </trkpt>
      <trkpt lat="38.51197" lon="-77.171195">
        <ele>32.819378</ele>
        <time>2023-09-10T09:45:34.000Z</time>
      </trkpt>
      <trkpt lat="38.515963" lon="-77.172565">
        <ele>36.644128</ele>
        <time>2023-09-10T09:46:20.000Z</time>
      </trkpt>
      <trkpt lat="38.518636" lon="-77.173357">
        <ele>38.121929</ele>
        <time>2023-09-10T09:46:51.000Z</time>
      </trkpt>
      <trkpt lat="38.518938" lon="-77.173417">
        <ele>38.326302</ele>
        <time>2023-09-10T09:46:54.000Z</time>
      </trkpt>
      <trkpt lat="38.519472" lon="-77.173446">
        <ele>38.670326</ele>
        <time>2023-09-10T09:47:00.000Z</time>
      </trkpt>
      <trkpt lat="38.519996" lon="-77.173397">
        <ele>39.007795</ele>
        <time>2023-09-10T09:47:06.000Z</time>
      </trkpt>
      <trkpt lat="38.520561" lon="-77.173291">
        <ele>39.286186</ele>
        <time>2023-09-10T09:47:12.000Z</time>
      </trkpt>
      <trkpt lat="38.520968" lon="-77.173139">
        <ele>39.422905</ele>
        <time>2023-09-10T09:47:17.000Z</time>
      </trkpt>
      <trkpt lat="38.521606" lon="-77.172803">
        <ele>39.644747</ele>
        <time>2023-09-10T09:47:25.000Z</time>
      </trkpt>
      <trkpt lat="38.522014" lon="-77.172546">
        <ele>39.793221</ele>
        <time>2023-09-10T09:47:30.000Z</time>
      </trkpt>
      <trkpt lat="38.522329" lon="-77.172284">
        <ele>39.945023</ele>
        <time>2023-09-10T09:47:34.000Z</time>
      </trkpt>
      <trkpt lat="38.522894" lon="-77.171713">
        <ele>40.244524</ele>
        <time>2023-09-10T09:47:42.000Z</time>
      </trkpt>
      <trkpt lat="38.523184" lon="-77.171305">
        <ele>40.421502</ele>
        <time>2023-09-10T09:47:47.000Z</time>
      </trkpt>
      <trkpt lat="38.523491" lon="-77.170787">
        <ele>40.518357</ele>
        <time>2023-09-10T09:47:53.000Z</time>
      </trkpt>
      <trkpt lat="38.523945" lon="-77.170007">
        <ele>40.539056</ele>
        <time>2023-09-10T09:48:01.000Z</time>
      </trkpt>
      <trkpt lat="38.524122" lon="-77.169776">
        <ele>40.545493</ele>
        <time>2023-09-10T09:48:04.000Z</time>
      </trkpt>
      <trkpt lat="38.524339" lon="-77.169572">
        <ele>40.553198</ele>
        <time>2023-09-10T09:48:07.000Z</time>
      </trkpt>
      <trkpt lat="38.524598" lon="-77.169365">
        <ele>40.509938</ele>
        <time>2023-09-10T09:48:10.000Z</time>
      </trkpt>
      <trkpt lat="38.524948" lon="-77.169219">
        <ele>40.294948</ele>
        <time>2023-09-10T09:48:14.000Z</time>
      </trkpt>
      <trkpt lat="38.525513" lon="-77.16908">
        <ele>39.960427</ele>
        <time>2023-09-10T09:48:20.000Z</time>
      </trkpt>
      <trkpt lat="38.526402" lon="-77.168881">
        <ele>39.473493</ele>
        <time>2023-09-10T09:48:30.000Z</time>
      </trkpt>
      <trkpt lat="38.527732" lon="-77.16856">
        <ele>39.183682</ele>
        <time>2023-09-10T09:48:45.000Z</time>
      </trkpt>
      <trkpt lat="38.530353" lon="-77.167863">
        <ele>39.60195</ele>
        <time>2023-09-10T09:49:15.000Z</time>
      </trkpt>
      <trkpt lat="38.530922" lon="-77.167701">
        <ele>39.377172</ele>
        <time>2023-09-10T09:49:21.000Z</time>
      </trkpt>
      <trkpt lat="38.531202" lon="-77.167629">
        <ele>39.264665</ele>
        <time>2023-09-10T09:49:24.000Z</time>
      </trkpt>
      <trkpt lat="38.531574" lon="-77.167622">
        <ele>39.122394</ele>
        <time>2023-09-10T09:49:28.000Z</time>
      </trkpt>
      <trkpt lat="38.531865" lon="-77.167651">
        <ele>38.836823</ele>
        <time>2023-09-10T09:49:31.000Z</time>
      </trkpt>
      <trkpt lat="38.532117" lon="-77.167762">
        <ele>38.581087</ele>
        <time>2023-09-10T09:49:34.000Z</time>
      </trkpt>
      <trkpt lat="38.532257" lon="-77.167842">
        <ele>38.421077</ele>
        <time>2023-09-10T09:49:36.000Z</time>
      </trkpt>
      <trkpt lat="38.532477" lon="-77.168045">
        <ele>38.156196</ele>
        <time>2023-09-10T09:49:39.000Z</time>
      </trkpt>
      <trkpt lat="38.532678" lon="-77.168294">
        <ele>37.877495</ele>
        <time>2023-09-10T09:49:42.000Z</time>
      </trkpt>
      <trkpt lat="38.533162" lon="-77.169239">
        <ele>37.250426</ele>
        <time>2023-09-10T09:49:52.000Z</time>
      </trkpt>
      <trkpt lat="38.533633" lon="-77.169927">
        <ele>37.033473</ele>
        <time>2023-09-10T09:50:00.000Z</time>
      </trkpt>
      <trkpt lat="38.534447" lon="-77.170824">
        <ele>36.65221</ele>
        <time>2023-09-10T09:50:12.000Z</time>
      </trkpt>
      <trkpt lat="38.535529" lon="-77.171958">
        <ele>35.977986</ele>
        <time>2023-09-10T09:50:28.000Z</time>
      </trkpt>
      <trkpt lat="38.535582" lon="-77.172028">
        <ele>35.950137</ele>
        <time>2023-09-10T09:50:29.000Z</time>
      </trkpt>
      <trkpt lat="38.537235" lon="-77.173823">
        <ele>36.570097</ele>
        <time>2023-09-10T09:50:53.000Z</time>
      </trkpt>
      <trkpt lat="38.537852" lon="-77.174462">
        <ele>37.211633</ele>
        <time>2023-09-10T09:51:02.000Z</time>
      </trkpt>
      <trkpt lat="38.538307" lon="-77.174806">
        <ele>37.658074</ele>
        <time>2023-09-10T09:51:08.000Z</time>
      </trkpt>
      <trkpt lat="38.538365" lon="-77.174851">
        <ele>37.707915</ele>
        <time>2023-09-10T09:51:09.000Z</time>
      </trkpt>
      <trkpt lat="38.538503" lon="-77.174904">
        <ele>37.789569</ele>
        <time>2023-09-10T09:51:11.000Z</time>
      </trkpt>
      <trkpt lat="38.538835" lon="-77.174966">
        <ele>37.95365</ele>
        <time>2023-09-10T09:51:15.000Z</time>
      </trkpt>
      <trkpt lat="38.539142" lon="-77.174937">
        <ele>38.114909</ele>
        <time>2023-09-10T09:51:18.000Z</time>
      </trkpt>
      <trkpt lat="38.540853" lon="-77.174495">
        <ele>39.077321</ele>
        <time>2023-09-10T09:51:37.000Z</time>
      </trkpt>
      <trkpt lat="38.541171" lon="-77.174458">
        <ele>39.261904</ele>
        <time>2023-09-10T09:51:41.000Z</time>
      </trkpt>
      <trkpt lat="38.541442" lon="-77.174511">
        <ele>39.428673</ele>
        <time>2023-09-10T09:51:44.000Z</time>
      </trkpt>
      <trkpt lat="38.541625" lon="-77.174641">
        <ele>39.561341</ele>
        <time>2023-09-10T09:51:46.000Z</time>
      </trkpt>
      <trkpt lat="38.542119" lon="-77.175291">
        <ele>40.055906</ele>
        <time>2023-09-10T09:51:54.000Z</time>
      </trkpt>
      <trkpt lat="38.542844" lon="-77.176255">
        <ele>40.839224</ele>
        <time>2023-09-10T09:52:06.000Z</time>
      </trkpt>
      <trkpt lat="38.543699" lon="-77.177331">
        <ele>40.238768</ele>
        <time>2023-09-10T09:52:19.000Z</time>
      </trkpt>
      <trkpt lat="38.544087" lon="-77.177784">
        <ele>39.720637</ele>
        <time>2023-09-10T09:52:25.000Z</time>
      </trkpt>
      <trkpt lat="38.544796" lon="-77.178539">
        <ele>37.34381</ele>
        <time>2023-09-10T09:52:35.000Z</time>
      </trkpt>
      <trkpt lat="38.544993" lon="-77.178325">
        <ele>36.349998</ele>
        <time>2023-09-10T09:52:38.000Z</time>
      </trkpt>
      <trkpt lat="38.545685" lon="-77.177662">
        <ele>33.088869</ele>
        <time>2023-09-10T09:52:48.000Z</time>
      </trkpt>
      <trkpt lat="38.546112" lon="-77.177325">
        <ele>30.818228</ele>
        <time>2023-09-10T09:52:54.000Z</time>
      </trkpt>
      <trkpt lat="38.546553" lon="-77.177027">
        <ele>28.442978</ele>
        <time>2023-09-10T09:53:00.000Z</time>
      </trkpt>
      <trkpt lat="38.547229" lon="-77.176616">
        <ele>24.905116</ele>
        <time>2023-09-10T09:53:08.000Z</time>
      </trkpt>
      <trkpt lat="38.54776" lon="-77.176396">
        <ele>23.367274</ele>
        <time>2023-09-10T09:53:14.000Z</time>
      </trkpt>
      <trkpt lat="38.549474" lon="-77.175782">
        <ele>22.109341</ele>
        <time>2023-09-10T09:53:34.000Z</time>
      </trkpt>
      <trkpt lat="38.55155" lon="-77.175101">
        <ele>28.214932</ele>
        <time>2023-09-10T09:53:58.000Z</time>
      </trkpt>
      <trkpt lat="38.551893" lon="-77.174986">
        <ele>29.099815</ele>
        <time>2023-09-10T09:54:02.000Z</time>
      </trkpt>
      <trkpt lat="38.552408" lon="-77.174799">
        <ele>30.47387</ele>
        <time>2023-09-10T09:54:08.000Z</time>
      </trkpt>
      <trkpt lat="38.553311" lon="-77.174514">
        <ele>29.829126</ele>
        <time>2023-09-10T09:54:18.000Z</time>
      </trkpt>
      <trkpt lat="38.553789" lon="-77.174353">
        <ele>28.958416</ele>
        <time>2023-09-10T09:54:23.000Z</time>
      </trkpt>
      <trkpt lat="38.554448" lon="-77.174079">
        <ele>27.584381</ele>
        <time>2023-09-10T09:54:31.000Z</time>
      </trkpt>
      <trkpt lat="38.554949" lon="-77.173813">
        <ele>25.442287</ele>
        <time>2023-09-10T09:54:37.000Z</time>
      </trkpt>
      <trkpt lat="38.555057" lon="-77.17374">
        <ele>24.898647</ele>
        <time>2023-09-10T09:54:38.000Z</time>
      </trkpt>
      <trkpt lat="38.555119" lon="-77.173848">
        <ele>24.503299</ele>
        <time>2023-09-10T09:54:39.000Z</time>
      </trkpt>
      <trkpt lat="38.555641" lon="-77.174677">
        <ele>21.176483</ele>
        <time>2023-09-10T09:54:48.000Z</time>
      </trkpt>
      <trkpt lat="38.555787" lon="-77.174859">
        <ele>20.472479</ele>
        <time>2023-09-10T09:54:50.000Z</time>
      </trkpt>
      <trkpt lat="38.555839" lon="-77.17505">
        <ele>19.931072</ele>
        <time>2023-09-10T09:54:52.000Z</time>
      </trkpt>
      <trkpt lat="38.556067" lon="-77.175717">
        <ele>18.06552</ele>
        <time>2023-09-10T09:54:58.000Z</time>
      </trkpt>
      <trkpt lat="38.556199" lon="-77.176505">
        <ele>15.941472</ele>
        <time>2023-09-10T09:55:05.000Z</time>
      </trkpt>
      <trkpt lat="38.556198" lon="-77.177013">
        <ele>14.663794</ele>
        <time>2023-09-10T09:55:09.000Z</time>
      </trkpt>
      <trkpt lat="38.556174" lon="-77.177442">
        <ele>13.871008</ele>
        <time>2023-09-10T09:55:13.000Z</time>
      </trkpt>
      <trkpt lat="38.556138" lon="-77.177755">
        <ele>13.278554</ele>
        <time>2023-09-10T09:55:16.000Z</time>
      </trkpt>
      <trkpt lat="38.555979" lon="-77.178281">
        <ele>12.270202</ele>
        <time>2023-09-10T09:55:21.000Z</time>
      </trkpt>
      <trkpt lat="38.555875" lon="-77.1785">
        <ele>11.812629</ele>
        <time>2023-09-10T09:55:23.000Z</time>
      </trkpt>
      <trkpt lat="38.5557" lon="-77.178776">
        <ele>11.14991</ele>
        <time>2023-09-10T09:55:26.000Z</time>
      </trkpt>
      <trkpt lat="38.555427" lon="-77.179128">
        <ele>10.217717</ele>
        <time>2023-09-10T09:55:30.000Z</time>
      </trkpt>
      <trkpt lat="38.555288" lon="-77.179345">
        <ele>9.721638</ele>
        <time>2023-09-10T09:55:32.000Z</time>
      </trkpt>
      <trkpt lat="38.555162" lon="-77.179752">
        <ele>8.905363</ele>
        <time>2023-09-10T09:55:36.000Z</time>
      </trkpt>
      <trkpt lat="38.555148" lon="-77.179941">
        <ele>8.541582</ele>
        <time>2023-09-10T09:55:38.000Z</time>
      </trkpt>
      <trkpt lat="38.555164" lon="-77.180179">
        <ele>8.085232</ele>
        <time>2023-09-10T09:55:40.000Z</time>
      </trkpt>
      <trkpt lat="38.555203" lon="-77.180565">
        <ele>7.36185</ele>
        <time>2023-09-10T09:55:43.000Z</time>
      </trkpt>
      <trkpt lat="38.555414" lon="-77.181264">
        <ele>6.059671</ele>
        <time>2023-09-10T09:55:50.000Z</time>
      </trkpt>
      <trkpt lat="38.556338" lon="-77.183067">
        <ele>3.30293349579</ele>
        <time>2023-09-10T09:56:09.000Z</time>
      </trkpt>
      <trkpt lat="38.556526" lon="-77.183528">
        <ele>2.63804964453</ele>
        <time>2023-09-10T09:56:14.000Z</time>
      </trkpt>
      <trkpt lat="38.556644" lon="-77.184173">
        <ele>1.79094358863</ele>
        <time>2023-09-10T09:56:20.000Z</time>
      </trkpt>
      <trkpt lat="38.556733" lon="-77.184433">
        <ele>1.42799281588</ele>
        <time>2023-09-10T09:56:22.000Z</time>
      </trkpt>
      <trkpt lat="38.55708" lon="-77.185092">
        <ele>0.412015832317</ele>
        <time>2023-09-10T09:56:29.000Z</time>
      </trkpt>
      <trkpt lat="38.557428" lon="-77.185731">
        <ele>-0.583779209113</ele>
        <time>2023-09-10T09:56:36.000Z</time>
      </trkpt>
    </trkseg>
  </trk>
</gpx>

<!--
Performance optimized by W3 Total Cache. Learn more: https://www.boldgrid.com/w3-total-cache/?utm_source=w3tc&utm_medium=footer_comment&utm_campaign=free_plugin

Page Caching using Disk: Enhanced{w3tc_pagecache_reject_reason} 

Served from: www.aquabike.world @ 2026-05-10 18:49:45 by W3 Total Cache
-->